Time;durP1;ratioP1;P1;durP2;ratioP2;P2;SDS_P1;SDS_P2;PMS_P1;PMS_P2;Temp;Humidity;BMP_temperature;BMP_pressure;BME280_temperature;BME280_humidity;BME280_pressure;Samples;Min_cycle;Max_cycle;Signal;HPM_P1;HPM_P2
2023/08/13 00:00:42;;;;;;;21.48;11.82;;;;;;;-145.33;100.00;60416.63;5007089;28;20528;-25
2023/08/13 00:03:08;;;;;;;20.65;9.27;;;;;;;-145.33;100.00;60416.63;5007393;28;20113;-27
2023/08/13 00:05:33;;;;;;;17.38;9.30;;;;;;;-145.33;100.00;60416.63;5007491;28;20428;-25
2023/08/13 00:07:59;;;;;;;13.90;7.40;;;;;;;-145.33;100.00;60416.63;4988461;28;20141;-24
2023/08/13 00:10:24;;;;;;;14.15;7.30;;;;;;;-145.33;100.00;60416.63;4987557;28;20403;-24
2023/08/13 00:12:49;;;;;;;11.40;6.03;;;;;;;-145.33;100.00;60416.63;4987964;28;20034;-32
2023/08/13 00:15:15;;;;;;;11.20;6.60;;;;;;;-145.33;100.00;60416.63;4987935;28;20433;-24
2023/08/13 00:17:40;;;;;;;23.23;11.38;;;;;;;-145.33;100.00;60416.63;4987780;28;20034;-23
2023/08/13 00:20:07;;;;;;;33.45;16.77;;;;;;;-145.33;100.00;60416.63;4987482;28;20045;-24
2023/08/13 00:22:32;;;;;;;76.63;36.22;;;;;;;-145.33;100.00;60416.63;4987358;28;20689;-24
2023/08/13 00:24:58;;;;;;;81.88;39.28;;;;;;;-145.33;100.00;60416.63;4987955;28;20025;-24
2023/08/13 00:27:23;;;;;;;93.00;41.70;;;;;;;-145.33;100.00;60416.63;4987334;28;20085;-24
2023/08/13 00:29:49;;;;;;;71.05;35.47;;;;;;;-145.33;100.00;60416.63;4987727;28;20034;-23
2023/08/13 00:32:15;;;;;;;53.42;25.63;;;;;;;-145.33;100.00;60416.63;4987394;28;20048;-35
2023/08/13 00:34:40;;;;;;;28.08;13.23;;;;;;;-145.33;100.00;60416.63;4987470;28;20489;-23
2023/08/13 00:37:06;;;;;;;20.80;10.05;;;;;;;-145.33;100.00;60416.63;4987753;28;20027;-23
2023/08/13 00:39:31;;;;;;;13.63;7.03;;;;;;;-145.33;100.00;60416.63;4987385;28;20030;-23
2023/08/13 00:41:57;;;;;;;10.50;6.00;;;;;;;-145.33;100.00;60416.63;4987361;28;20108;-25
2023/08/13 00:44:22;;;;;;;8.48;5.28;;;;;;;-145.33;100.00;60416.63;4986845;28;20026;-24
2023/08/13 00:46:48;;;;;;;11.45;5.57;;;;;;;-145.33;100.00;60416.63;4987500;28;20026;-26
2023/08/13 00:49:15;;;;;;;9.68;4.93;;;;;;;-145.33;100.00;60416.63;4987212;28;20031;-24
2023/08/13 00:51:40;;;;;;;10.05;4.93;;;;;;;-145.33;100.00;60416.63;4987126;28;20078;-23
2023/08/13 00:54:08;;;;;;;10.00;5.18;;;;;;;-145.33;100.00;60416.63;4986881;28;20054;-24
2023/08/13 00:56:39;;;;;;;9.23;5.63;;;;;;;-145.33;100.00;60416.63;4986590;28;20053;-24
2023/08/13 00:59:04;;;;;;;7.50;5.05;;;;;;;-145.33;100.00;60416.63;4986597;28;20033;-24
2023/08/13 01:01:30;;;;;;;7.97;4.78;;;;;;;-145.33;100.00;60416.63;4986866;28;20030;-24
2023/08/13 01:03:55;;;;;;;10.07;5.38;;;;;;;-145.33;100.00;60416.63;4986932;28;20489;-24
2023/08/13 01:06:21;;;;;;;8.18;5.40;;;;;;;-145.33;100.00;60416.63;4991721;28;20080;-24
2023/08/13 01:09:05;;;;;;;8.27;5.15;;;;;;;-145.33;100.00;60416.63;5006534;28;20045;-25
2023/08/13 01:12:08;;;;;;;9.07;5.28;;;;;;;-145.33;100.00;60416.63;5006240;28;20105;-23
2023/08/13 01:14:59;;;;;;;9.95;4.50;;;;;;;-145.33;100.00;60416.63;5006182;28;20040;-24
2023/08/13 01:17:26;;;;;;;9.60;5.00;;;;;;;-145.33;100.00;60416.63;5000097;28;20038;-24
2023/08/13 01:19:51;;;;;;;7.70;4.80;;;;;;;-145.33;100.00;60416.63;5006250;28;20033;-24
2023/08/13 01:22:23;;;;;;;8.63;5.32;;;;;;;-145.33;100.00;60416.63;5006132;28;20030;-23
2023/08/13 01:24:48;;;;;;;8.13;4.57;;;;;;;-145.33;100.00;60416.63;5006319;28;20112;-23
2023/08/13 01:27:32;;;;;;;8.05;5.00;;;;;;;-145.33;100.00;60416.63;5006056;28;20032;-23
2023/08/13 01:30:14;;;;;;;7.55;4.80;;;;;;;-145.33;100.00;60416.63;5006128;28;20030;-24
2023/08/13 01:32:54;;;;;;;6.20;4.28;;;;;;;-145.33;100.00;60416.63;5005973;28;20030;-23
2023/08/13 01:35:22;;;;;;;9.57;4.95;;;;;;;-145.33;100.00;60416.63;5006083;28;20109;-28
2023/08/13 01:37:49;;;;;;;6.82;5.03;;;;;;;-145.33;100.00;60416.63;5006327;28;20125;-24
2023/08/13 01:40:15;;;;;;;8.07;5.30;;;;;;;-145.33;100.00;60416.63;5006040;28;20119;-23
2023/08/13 01:42:43;;;;;;;8.52;4.93;;;;;;;-145.33;100.00;60416.63;5005737;28;20531;-23
2023/08/13 01:45:08;;;;;;;9.98;5.22;;;;;;;-145.33;100.00;60416.63;5006032;28;20034;-24
2023/08/13 01:47:34;;;;;;;9.82;5.47;;;;;;;-145.33;100.00;60416.63;5005789;28;20152;-23
2023/08/13 01:49:59;;;;;;;10.45;5.30;;;;;;;-145.33;100.00;60416.63;5005798;28;20413;-24
2023/08/13 01:52:25;;;;;;;8.60;5.28;;;;;;;-145.33;100.00;60416.63;5005790;28;20046;-25
2023/08/13 01:54:52;;;;;;;6.57;4.63;;;;;;;-145.33;100.00;60416.63;5005467;28;20026;-27
2023/08/13 01:57:20;;;;;;;8.77;5.00;;;;;;;-145.33;100.00;60416.63;5006041;28;20095;-23
2023/08/13 01:59:45;;;;;;;9.43;5.57;;;;;;;-145.33;100.00;60416.63;5005835;28;20034;-23
2023/08/13 02:02:11;;;;;;;30.25;16.10;;;;;;;-145.33;100.00;60416.63;5005529;28;20025;-23
2023/08/13 02:04:36;;;;;;;67.63;33.38;;;;;;;-145.33;100.00;60416.63;5005477;28;20448;-24
2023/08/13 02:07:02;;;;;;;59.15;30.83;;;;;;;-145.33;100.00;60416.63;5005155;28;20030;-24
2023/08/13 02:09:27;;;;;;;56.38;28.48;;;;;;;-145.33;100.00;60416.63;5008297;28;20033;-25
2023/08/13 02:11:52;;;;;;;39.55;19.67;;;;;;;-145.33;100.00;60416.63;5009455;28;20034;-26
2023/08/13 02:14:18;;;;;;;48.90;23.75;;;;;;;-145.33;100.00;60416.63;5009595;28;20065;-26
2023/08/13 02:16:43;;;;;;;82.40;38.88;;;;;;;-145.33;100.00;60416.63;5009555;28;20022;-24
2023/08/13 02:19:09;;;;;;;120.90;52.15;;;;;;;-145.33;100.00;60416.63;5009492;28;20033;-23
2023/08/13 02:21:34;;;;;;;133.43;52.85;;;;;;;-145.33;100.00;60416.63;5009598;28;20402;-23
2023/08/13 02:24:00;;;;;;;85.93;38.42;;;;;;;-145.33;100.00;60416.63;5009205;28;20751;-23
2023/08/13 02:26:25;;;;;;;75.47;34.92;;;;;;;-145.33;100.00;60416.63;5009357;28;20420;-24
2023/08/13 02:28:50;;;;;;;60.60;29.65;;;;;;;-145.33;100.00;60416.63;5009120;28;20080;-24
2023/08/13 02:31:16;;;;;;;43.92;20.83;;;;;;;-145.33;100.00;60416.63;5009327;28;20034;-24
2023/08/13 02:33:41;;;;;;;34.88;18.45;;;;;;;-145.33;100.00;60416.63;5008878;28;20030;-24
2023/08/13 02:36:07;;;;;;;33.10;16.98;;;;;;;-145.33;100.00;60416.63;5009108;28;20038;-23
2023/08/13 02:38:32;;;;;;;34.33;18.13;;;;;;;-145.33;100.00;60416.63;5008792;28;20038;-23
2023/08/13 02:40:58;;;;;;;32.38;17.33;;;;;;;-145.33;100.00;60416.63;5009000;28;20130;-24
2023/08/13 02:43:27;;;;;;;31.35;15.45;;;;;;;-145.33;100.00;60416.63;5008863;28;20088;-23
2023/08/13 02:45:52;;;;;;;32.42;15.57;;;;;;;-145.33;100.00;60416.63;5009079;28;20029;-24
2023/08/13 02:48:17;;;;;;;34.30;16.45;;;;;;;-145.33;100.00;60416.63;5009277;28;20029;-23
2023/08/13 02:50:43;;;;;;;21.17;11.40;;;;;;;-145.33;100.00;60416.63;5008651;28;20026;-23
2023/08/13 02:53:08;;;;;;;23.20;11.50;;;;;;;-145.33;100.00;60416.63;5008763;28;20481;-24
2023/08/13 02:55:36;;;;;;;31.33;15.15;;;;;;;-145.33;100.00;60416.63;5008635;28;20033;-25
2023/08/13 02:58:01;;;;;;;36.92;15.73;;;;;;;-145.33;100.00;60416.63;5009090;28;20032;-25
2023/08/13 03:00:27;;;;;;;32.75;16.20;;;;;;;-145.33;100.00;60416.63;5008521;28;20037;-24
2023/08/13 03:02:52;;;;;;;23.17;12.50;;;;;;;-145.33;100.00;60416.63;5008460;28;20041;-24
2023/08/13 03:05:17;;;;;;;21.52;11.60;;;;;;;-145.33;100.00;60416.63;5008690;28;20050;-23
2023/08/13 03:07:43;;;;;;;22.70;12.10;;;;;;;-145.33;100.00;60416.63;5008457;28;20053;-27
2023/08/13 03:10:09;;;;;;;15.55;9.30;;;;;;;-145.33;100.00;60416.63;5008800;28;20026;-23
2023/08/13 03:12:34;;;;;;;17.67;9.27;;;;;;;-145.33;100.00;60416.63;5008356;28;20033;-24
2023/08/13 03:14:59;;;;;;;13.98;7.68;;;;;;;-145.33;100.00;60416.63;5008469;28;20061;-25
2023/08/13 03:17:25;;;;;;;16.17;8.30;;;;;;;-145.33;100.00;60416.63;5008637;28;20036;-24
2023/08/13 03:19:50;;;;;;;19.55;8.30;;;;;;;-145.33;100.00;60416.63;5007894;28;20057;-33
2023/08/13 03:22:18;;;;;;;11.45;7.15;;;;;;;-145.33;100.00;60416.63;5008016;28;20116;-28
2023/08/13 03:24:43;;;;;;;11.45;6.60;;;;;;;-145.33;100.00;60416.63;5008600;28;20029;-23
2023/08/13 03:27:09;;;;;;;16.50;9.05;;;;;;;-145.33;100.00;60416.63;5008470;28;20027;-27
2023/08/13 03:29:34;;;;;;;157.20;62.20;;;;;;;-145.33;100.00;60416.63;5007714;28;20465;-23
2023/08/13 03:32:00;;;;;;;178.02;68.95;;;;;;;-145.33;100.00;60416.63;5008416;28;20022;-24
2023/08/13 03:34:25;;;;;;;109.95;46.72;;;;;;;-145.33;100.00;60416.63;5007787;28;20037;-23
2023/08/13 03:36:52;;;;;;;85.53;35.75;;;;;;;-145.33;100.00;60416.63;5008238;28;20468;-26
2023/08/13 03:39:18;;;;;;;67.72;30.60;;;;;;;-145.33;100.00;60416.63;5007940;28;20022;-24
2023/08/13 03:41:43;;;;;;;64.95;29.42;;;;;;;-145.33;100.00;60416.63;5007830;28;20041;-24
2023/08/13 03:44:09;;;;;;;64.32;29.90;;;;;;;-145.33;100.00;60416.63;5007914;28;20851;-24
2023/08/13 03:46:34;;;;;;;32.15;16.13;;;;;;;-145.33;100.00;60416.63;5007765;28;20037;-23
2023/08/13 03:48:59;;;;;;;29.10;16.70;;;;;;;-145.33;100.00;60416.63;5007965;28;20788;-23
2023/08/13 03:51:25;;;;;;;20.63;10.43;;;;;;;-145.33;100.00;60416.63;5007447;28;20153;-24
2023/08/13 03:53:51;;;;;;;18.33;8.57;;;;;;;-145.33;100.00;60416.63;5007716;28;20041;-31
2023/08/13 03:56:16;;;;;;;13.35;8.00;;;;;;;-145.33;100.00;60416.63;4989873;28;20560;-26
2023/08/13 03:58:41;;;;;;;15.35;7.72;;;;;;;-145.33;100.00;60416.63;5007575;28;20481;-23
2023/08/13 04:01:08;;;;;;;15.25;8.95;;;;;;;-145.33;100.00;60416.63;5007626;28;20026;-23
2023/08/13 04:03:33;;;;;;;21.77;11.95;;;;;;;-145.33;100.00;60416.63;5007326;28;20038;-23
2023/08/13 04:05:59;;;;;;;22.30;13.35;;;;;;;-145.33;100.00;60416.63;5007464;28;20038;-25
2023/08/13 04:08:24;;;;;;;39.10;20.83;;;;;;;-145.33;100.00;60416.63;5007504;28;20091;-23
2023/08/13 04:10:51;;;;;;;60.53;30.92;;;;;;;-145.33;100.00;60416.63;5007710;28;20018;-29
2023/08/13 04:13:19;;;;;;;108.00;49.38;;;;;;;-145.33;100.00;60416.63;5007248;28;20802;-23
2023/08/13 04:15:44;;;;;;;;;;;;;;;-145.33;100.00;60416.63;5007672;28;20049;-24
2023/08/13 04:18:09;;;;;;;39.30;19.02;;;;;;;-145.33;100.00;60416.63;5007284;28;20739;-25
2023/08/13 04:20:36;;;;;;;22.25;12.75;;;;;;;-145.33;100.00;60416.63;5006989;28;20029;-23
2023/08/13 04:23:01;;;;;;;23.48;12.18;;;;;;;-145.33;100.00;60416.63;5007001;28;20040;-23
2023/08/13 04:25:27;;;;;;;23.20;10.88;;;;;;;-145.33;100.00;60416.63;5007178;28;20034;-23
2023/08/13 04:27:52;;;;;;;18.63;9.52;;;;;;;-145.33;100.00;60416.63;5007294;28;20729;-23
2023/08/13 04:30:18;;;;;;;15.75;8.68;;;;;;;-145.33;100.00;60416.63;5006932;28;20033;-28
2023/08/13 04:32:53;;;;;;;12.07;7.68;;;;;;;-145.33;100.00;60416.63;5006884;28;20037;-24
2023/08/13 04:35:18;;;;;;;11.57;7.75;;;;;;;-145.33;100.00;60416.63;5006911;28;20022;-24
2023/08/13 04:37:46;;;;;;;11.55;8.10;;;;;;;-145.33;100.00;60416.63;5007354;28;20033;-23
2023/08/13 04:40:11;;;;;;;12.50;7.47;;;;;;;-145.33;100.00;60416.63;5006618;28;20140;-23
2023/08/13 04:42:37;;;;;;;12.75;7.45;;;;;;;-145.33;100.00;60416.63;5006704;28;20115;-25
2023/08/13 04:45:02;;;;;;;11.02;6.80;;;;;;;-145.33;100.00;60416.63;5006657;28;20145;-23
2023/08/13 04:47:28;;;;;;;11.77;6.80;;;;;;;-145.33;100.00;60416.63;5006785;28;20045;-23
2023/08/13 04:49:53;;;;;;;9.63;7.13;;;;;;;-145.33;100.00;60416.63;5006246;28;20748;-24
2023/08/13 04:52:19;;;;;;;13.25;8.23;;;;;;;-145.33;100.00;60416.63;5006893;28;20026;-23
2023/08/13 04:54:46;;;;;;;11.50;7.43;;;;;;;-145.33;100.00;60416.63;5006415;28;20037;-23
2023/08/13 04:57:12;;;;;;;10.02;6.82;;;;;;;-145.33;100.00;60416.63;5006315;28;20047;-23
2023/08/13 04:59:37;;;;;;;11.48;6.60;;;;;;;-145.33;100.00;60416.63;5006509;28;20053;-24
2023/08/13 05:02:03;;;;;;;10.48;6.85;;;;;;;-145.33;100.00;60416.63;5006362;28;20052;-24
2023/08/13 05:04:28;;;;;;;9.00;6.07;;;;;;;-145.33;100.00;60416.63;5006493;28;20030;-23
2023/08/13 05:06:54;;;;;;;10.18;6.80;;;;;;;-145.33;100.00;60416.63;5006139;28;20038;-23
2023/08/13 05:09:19;;;;;;;12.10;6.53;;;;;;;-145.33;100.00;60416.63;5006513;28;20041;-29
2023/08/13 05:11:45;;;;;;;8.70;5.82;;;;;;;-145.33;100.00;60416.63;5006459;28;20025;-23
2023/08/13 05:14:13;;;;;;;13.43;8.55;;;;;;;-145.33;100.00;60416.63;4998018;28;20124;-23
2023/08/13 05:16:38;;;;;;;25.33;11.07;;;;;;;-145.33;100.00;60416.63;4987001;28;20504;-24
2023/08/13 05:19:03;;;;;;;25.70;12.77;;;;;;;-145.33;100.00;60416.63;4986526;28;20038;-24
2023/08/13 05:21:29;;;;;;;11.80;7.78;;;;;;;-145.33;100.00;60416.63;4985447;28;20169;-24
2023/08/13 05:23:54;;;;;;;12.52;7.43;;;;;;;-145.33;100.00;60416.63;4986022;28;20508;-24
2023/08/13 05:26:20;;;;;;;14.85;8.75;;;;;;;-145.33;100.00;60416.63;4986184;28;20112;-28
2023/08/13 05:28:46;;;;;;;23.38;13.85;;;;;;;-145.33;100.00;60416.63;4989450;28;20804;-24
2023/08/13 05:31:11;;;;;;;23.70;11.43;;;;;;;-145.33;100.00;60416.63;4985889;28;20094;-27
2023/08/13 05:33:37;;;;;;;9.10;6.07;;;;;;;-145.33;100.00;60416.63;4985664;28;20034;-23
2023/08/13 05:36:02;;;;;;;10.90;6.45;;;;;;;-145.33;100.00;60416.63;4985724;28;20030;-23
2023/08/13 05:38:30;;;;;;;9.90;5.57;;;;;;;-145.33;100.00;60416.63;4985660;28;20145;-25
2023/08/13 05:40:55;;;;;;;28.27;14.07;;;;;;;-145.33;100.00;60416.63;4985105;28;20030;-24
2023/08/13 05:43:21;;;;;;;10.85;6.85;;;;;;;-145.33;100.00;60416.63;4985456;28;20030;-29
2023/08/13 05:45:46;;;;;;;10.63;5.90;;;;;;;-145.33;100.00;60416.63;4985887;28;20054;-24
2023/08/13 05:48:12;;;;;;;15.45;8.85;;;;;;;-145.33;100.00;60416.63;4985665;28;20139;-24
2023/08/13 05:50:37;;;;;;;15.38;7.65;;;;;;;-145.33;100.00;60416.63;4985194;28;20027;-29
2023/08/13 05:53:03;;;;;;;10.70;6.13;;;;;;;-145.33;100.00;60416.63;4985050;28;20092;-24
2023/08/13 05:55:28;;;;;;;15.20;6.32;;;;;;;-145.33;100.00;60416.63;4984341;28;20018;-24
2023/08/13 05:57:53;;;;;;;15.43;8.88;;;;;;;-145.33;100.00;60416.63;4984156;28;20027;-25
2023/08/13 06:00:22;;;;;;;9.13;5.53;;;;;;;-145.33;100.00;60416.63;4985085;28;20026;-23
2023/08/13 06:02:47;;;;;;;10.35;5.97;;;;;;;-145.33;100.00;60416.63;4984858;28;20033;-24
2023/08/13 06:05:13;;;;;;;9.05;5.88;;;;;;;-145.33;100.00;60416.63;4985962;28;20030;-24
2023/08/13 06:07:38;;;;;;;9.65;5.88;;;;;;;-145.33;100.00;60416.63;4985889;28;20744;-24
2023/08/13 06:10:05;;;;;;;19.15;9.20;;;;;;;-145.33;100.00;60416.63;4985529;28;20038;-24
2023/08/13 06:12:33;;;;;;;8.30;4.32;;;;;;;-145.33;100.00;60416.63;4985089;28;20033;-23
2023/08/13 06:14:59;;;;;;;9.05;5.68;;;;;;;-145.33;100.00;60416.63;4985032;28;20034;-23
2023/08/13 06:17:27;;;;;;;7.22;4.15;;;;;;;-145.33;100.00;60416.63;4985618;28;20093;-24
2023/08/13 06:19:53;;;;;;;7.03;4.68;;;;;;;-145.33;100.00;60416.63;4985015;28;20030;-24
2023/08/13 06:22:19;;;;;;;12.85;4.93;;;;;;;-145.33;100.00;60416.63;4980232;28;20026;-26
2023/08/13 06:24:44;;;;;;;9.30;5.68;;;;;;;-145.33;100.00;60416.63;4985315;28;20045;-23
2023/08/13 06:27:11;;;;;;;8.18;4.65;;;;;;;-145.33;100.00;60416.63;4985718;28;20038;-24
2023/08/13 06:29:36;;;;;;;6.60;4.93;;;;;;;-145.33;100.00;60416.63;4985855;28;20050;-24
2023/08/13 06:32:01;;;;;;;6.80;4.85;;;;;;;-145.33;100.00;60416.63;4985256;28;20115;-23
2023/08/13 06:34:27;;;;;;;7.65;4.70;;;;;;;-145.33;100.00;60416.63;4985424;28;20141;-24
2023/08/13 06:36:53;;;;;;;9.30;4.75;;;;;;;-145.33;100.00;60416.63;4985258;28;20026;-24
2023/08/13 06:39:19;;;;;;;9.57;4.90;;;;;;;-145.33;100.00;60416.63;4985767;28;20085;-23
2023/08/13 06:41:44;;;;;;;7.68;4.70;;;;;;;-145.33;100.00;60416.63;4985994;28;20018;-23
2023/08/13 06:44:19;;;;;;;8.63;5.00;;;;;;;-145.33;100.00;60416.63;4985718;28;20169;-23
2023/08/13 06:46:48;;;;;;;10.75;4.70;;;;;;;-145.33;100.00;60416.63;4986209;28;20602;-26
2023/08/13 06:49:14;;;;;;;8.60;4.60;;;;;;;-145.33;100.00;60416.63;4985773;28;20038;-23
2023/08/13 06:51:40;;;;;;;8.88;4.60;;;;;;;-145.33;100.00;60416.63;4985478;28;20037;-23
2023/08/13 06:54:06;;;;;;;6.38;4.10;;;;;;;-145.33;100.00;60416.63;4985918;28;20057;-23
2023/08/13 06:56:32;;;;;;;6.32;4.35;;;;;;;-145.33;100.00;60416.63;4987557;28;20031;-25
2023/08/13 06:58:58;;;;;;;8.73;4.32;;;;;;;-145.33;100.00;60416.63;4989343;28;20674;-24
2023/08/13 07:01:23;;;;;;;7.43;3.80;;;;;;;-145.33;100.00;60416.63;4989141;28;20035;-24
2023/08/13 07:03:49;;;;;;;7.18;3.95;;;;;;;-145.33;100.00;60416.63;4989268;28;20045;-24
2023/08/13 07:06:15;;;;;;;7.95;5.13;;;;;;;-145.33;100.00;60416.63;4988928;28;20050;-24
2023/08/13 07:08:40;;;;;;;8.35;4.50;;;;;;;-145.33;100.00;60416.63;4987689;28;20836;-25
2023/08/13 07:11:06;;;;;;;15.18;7.90;;;;;;;-145.33;100.00;60416.63;4981742;28;20052;-25
2023/08/13 07:13:31;;;;;;;21.20;8.93;;;;;;;-145.33;100.00;60416.63;4981671;28;20068;-27
2023/08/13 07:15:57;;;;;;;11.02;5.40;;;;;;;-145.33;100.00;60416.63;4981971;28;20449;-26
2023/08/13 07:18:22;;;;;;;9.70;7.43;;;;;;;-145.33;100.00;60416.63;4982774;28;20019;-24
2023/08/13 07:20:48;;;;;;;6.45;4.43;;;;;;;-145.33;100.00;60416.63;4988467;28;20033;-24
2023/08/13 07:23:13;;;;;;;6.78;4.07;;;;;;;-145.33;100.00;60416.63;4988207;28;20030;-24
2023/08/13 07:25:39;;;;;;;7.68;4.32;;;;;;;-145.33;100.00;60416.63;4988747;28;20027;-23
2023/08/13 07:28:07;;;;;;;8.70;4.28;;;;;;;-145.33;100.00;60416.63;4988572;28;20343;-24
2023/08/13 07:30:33;;;;;;;6.32;3.95;;;;;;;-145.33;100.00;60416.63;4988714;28;20104;-24
2023/08/13 07:33:00;;;;;;;25.33;13.25;;;;;;;-145.33;100.00;60416.63;4988657;28;20465;-24
2023/08/13 07:35:26;;;;;;;;;;;;;;;-145.33;100.00;60416.63;4989056;28;20081;-23
2023/08/13 07:37:52;;;;;;;13.17;7.00;;;;;;;-145.33;100.00;60416.63;4988678;28;20381;-29
2023/08/13 07:40:18;;;;;;;13.25;7.05;;;;;;;-145.33;100.00;60416.63;4987975;28;20291;-23
2023/08/13 07:42:44;;;;;;;6.72;4.15;;;;;;;-145.33;100.00;60416.63;4980006;28;20031;-24
2023/08/13 07:45:10;;;;;;;7.15;4.05;;;;;;;-145.33;100.00;60416.63;4968899;28;20137;-24
2023/08/13 07:47:36;;;;;;;7.78;4.28;;;;;;;-145.33;100.00;60416.63;4969005;28;20034;-24
2023/08/13 07:50:04;;;;;;;7.22;3.60;;;;;;;-145.33;100.00;60416.63;4968907;28;20082;-23
2023/08/13 07:52:31;;;;;;;7.10;3.78;;;;;;;-145.33;100.00;60416.63;4968630;28;20536;-24
2023/08/13 07:54:57;;;;;;;10.07;4.43;;;;;;;-145.33;100.00;60416.63;4969057;28;20498;-24
2023/08/13 07:57:22;;;;;;;7.55;3.53;;;;;;;-145.33;100.00;60416.63;4968645;28;20042;-24
2023/08/13 07:59:47;;;;;;;6.07;3.58;;;;;;;-145.33;100.00;60416.63;4969018;28;20023;-24
2023/08/13 08:02:13;;;;;;;8.25;4.10;;;;;;;-145.33;100.00;60416.63;4968445;28;20033;-25
2023/08/13 08:04:38;;;;;;;4.80;3.65;;;;;;;-145.33;100.00;60416.63;4968671;28;20046;-24
2023/08/13 08:07:04;;;;;;;5.75;3.60;;;;;;;-145.33;100.00;60416.63;4968095;28;20423;-26
2023/08/13 08:09:29;;;;;;;8.00;3.50;;;;;;;-145.33;100.00;60416.63;4968882;28;20054;-23
2023/08/13 08:11:55;;;;;;;8.50;3.92;;;;;;;-145.33;100.00;60416.63;4968469;28;20026;-23
2023/08/13 08:14:20;;;;;;;6.28;3.42;;;;;;;-145.33;100.00;60416.63;4968617;28;20122;-24
2023/08/13 08:16:46;;;;;;;7.05;3.72;;;;;;;-145.33;100.00;60416.63;4967983;28;20038;-24
2023/08/13 08:19:12;;;;;;;6.30;3.25;;;;;;;-145.33;100.00;60416.63;4968053;28;20037;-23
2023/08/13 08:21:37;;;;;;;8.48;3.90;;;;;;;-145.33;100.00;60416.63;4968346;28;20038;-24
2023/08/13 08:24:04;;;;;;;7.20;3.47;;;;;;;-145.33;100.00;60416.63;4968207;28;20046;-24
2023/08/13 08:26:29;;;;;;;6.60;3.35;;;;;;;-145.33;100.00;60416.63;4968481;28;20027;-24
2023/08/13 08:28:54;;;;;;;7.25;3.30;;;;;;;-145.33;100.00;60416.63;4968116;28;20030;-24
2023/08/13 08:31:20;;;;;;;6.72;3.42;;;;;;;-145.33;100.00;60416.63;4968438;28;20034;-25
2023/08/13 08:33:46;;;;;;;7.18;3.95;;;;;;;-145.33;100.00;60416.63;4968033;28;20030;-23
2023/08/13 08:36:13;;;;;;;5.25;3.60;;;;;;;-145.33;100.00;60416.63;4967337;28;20062;-24
2023/08/13 08:38:39;;;;;;;;;;;;;;;-145.33;100.00;60416.63;4967920;28;20059;-25
2023/08/13 08:41:08;;;;;;;4.90;3.30;;;;;;;-145.33;100.00;60416.63;4967298;28;19958;-23
2023/08/13 08:43:38;;;;;;;6.20;3.25;;;;;;;-145.33;100.00;60416.63;4968134;28;20117;-24
2023/08/13 08:46:06;;;;;;;6.57;3.30;;;;;;;-145.33;100.00;60416.63;4967363;28;20046;-23
2023/08/13 08:48:33;;;;;;;7.47;4.60;;;;;;;-145.33;100.00;60416.63;4967953;28;20597;-24
2023/08/13 08:50:59;;;;;;;10.32;4.93;;;;;;;-145.33;100.00;60416.63;4968086;28;20125;-23
2023/08/13 08:53:27;;;;;;;7.53;3.50;;;;;;;-145.33;100.00;60416.63;4967731;28;20113;-24
2023/08/13 08:55:55;;;;;;;5.70;3.50;;;;;;;-145.33;100.00;60416.63;4967441;28;20117;-31
2023/08/13 08:58:21;;;;;;;7.28;3.90;;;;;;;-145.33;100.00;60416.63;4965931;28;20081;-26
2023/08/13 09:00:46;;;;;;;5.18;3.60;;;;;;;-145.33;100.00;60416.63;4966651;28;20027;-23
2023/08/13 09:03:11;;;;;;;6.53;3.53;;;;;;;-145.33;100.00;60416.63;4967133;28;20026;-26
2023/08/13 09:05:38;;;;;;;7.55;3.92;;;;;;;-145.33;100.00;60416.63;4966973;28;20520;-25
2023/08/13 09:08:13;;;;;;;8.37;2.97;;;;;;;-145.33;100.00;60416.63;4967187;28;20610;-23
2023/08/13 09:10:44;;;;;;;6.50;2.70;;;;;;;-145.33;100.00;60416.63;4967444;28;20043;-24
2023/08/13 09:13:10;;;;;;;7.75;2.90;;;;;;;-145.33;100.00;60416.63;4966999;28;20031;-24
2023/08/13 09:15:43;;;;;;;6.25;2.53;;;;;;;-145.33;100.00;60416.63;4967633;28;20089;-24
2023/08/13 09:18:10;;;;;;;5.60;2.67;;;;;;;-145.33;100.00;60416.63;4966919;28;20031;-26
2023/08/13 09:20:42;;;;;;;;;;;;;;;-145.33;100.00;60416.63;4967921;28;20031;-24
2023/08/13 09:23:07;;;;;;;5.38;2.63;;;;;;;-145.33;100.00;60416.63;4967609;28;19945;-24
2023/08/13 09:25:32;;;;;;;5.47;2.97;;;;;;;-145.33;100.00;60416.63;4967067;28;20034;-26
2023/08/13 09:28:01;;;;;;;6.22;2.58;;;;;;;-145.33;100.00;60416.63;4967607;28;20481;-23
2023/08/13 09:30:31;;;;;;;6.65;3.05;;;;;;;-145.33;100.00;60416.63;4967091;28;20035;-24
2023/08/13 09:33:02;;;;;;;7.20;2.75;;;;;;;-145.33;100.00;60416.63;4967010;28;20062;-24
2023/08/13 09:35:28;;;;;;;7.82;3.33;;;;;;;-145.33;100.00;60416.63;4967036;28;20414;-25
2023/08/13 09:37:54;;;;;;;6.60;2.83;;;;;;;-145.33;100.00;60416.63;4967183;28;20487;-30
2023/08/13 09:40:19;;;;;;;4.75;2.53;;;;;;;-145.33;100.00;60416.63;4967185;28;20418;-24
2023/08/13 09:42:46;;;;;;;5.72;2.63;;;;;;;-145.33;100.00;60416.63;4967047;28;20077;-24
2023/08/13 09:45:15;;;;;;;3.58;2.40;;;;;;;-145.33;100.00;60416.63;4967086;28;20035;-24
2023/08/13 09:47:44;;;;;;;5.45;2.67;;;;;;;-145.33;100.00;60416.63;4966992;28;20113;-24
2023/08/13 09:50:12;;;;;;;8.52;2.35;;;;;;;-145.33;100.00;60416.63;4966899;28;20023;-24
2023/08/13 09:52:41;;;;;;;5.90;2.50;;;;;;;-145.33;100.00;60416.63;4967268;28;20031;-24
2023/08/13 09:55:13;;;;;;;4.60;2.63;;;;;;;-145.33;100.00;60416.63;4967014;28;20049;-24
2023/08/13 09:57:41;;;;;;;4.72;2.53;;;;;;;-145.33;100.00;60416.63;4966617;28;20525;-25
2023/08/13 10:00:08;;;;;;;5.70;2.58;;;;;;;-145.33;100.00;60416.63;4966743;28;20031;-23
2023/08/13 10:02:35;;;;;;;5.40;3.13;;;;;;;-145.33;100.00;60416.63;4966895;28;20026;-24
2023/08/13 10:05:02;;;;;;;6.63;2.78;;;;;;;-145.33;100.00;60416.63;4966787;28;20113;-24
2023/08/13 10:07:28;;;;;;;4.93;3.00;;;;;;;-145.33;100.00;60416.63;4966440;28;20049;-24
2023/08/13 10:09:54;;;;;;;3.80;2.70;;;;;;;-145.33;100.00;60416.63;4966644;28;20118;-24
2023/08/13 10:12:21;;;;;;;3.97;2.38;;;;;;;-145.33;100.00;60416.63;4966690;28;20117;-25
2023/08/13 10:14:49;;;;;;;6.88;2.80;;;;;;;-145.33;100.00;60416.63;4966372;28;20038;-24
2023/08/13 10:17:23;;;;;;;5.15;2.78;;;;;;;-145.33;100.00;60416.63;4966532;28;20166;-24
2023/08/13 10:19:50;;;;;;;6.03;3.10;;;;;;;-145.33;100.00;60416.63;4966298;28;20047;-24
2023/08/13 10:22:42;;;;;;;4.53;2.63;;;;;;;-145.33;100.00;60416.63;4966857;28;20521;-25
2023/08/13 10:25:10;;;;;;;7.35;2.90;;;;;;;-145.33;100.00;60416.63;4965786;28;20062;-24
2023/08/13 10:27:43;;;;;;;6.50;2.55;;;;;;;-145.33;100.00;60416.63;4966693;28;20015;-24
2023/08/13 10:30:13;;;;;;;6.22;2.60;;;;;;;-145.33;100.00;60416.63;4968190;28;20494;-26
2023/08/13 10:32:51;;;;;;;5.28;2.83;;;;;;;-145.33;100.00;60416.63;4970261;28;20038;-23
2023/08/13 10:35:37;;;;;;;4.95;2.67;;;;;;;-145.33;100.00;60416.63;4970168;28;20031;-24
2023/08/13 10:38:04;;;;;;;4.80;2.70;;;;;;;-145.33;100.00;60416.63;4970326;28;20085;-23
2023/08/13 10:40:30;;;;;;;5.85;3.22;;;;;;;-145.33;100.00;60416.63;4970133;28;20278;-27
2023/08/13 10:42:59;;;;;;;4.53;2.80;;;;;;;-145.33;100.00;60416.63;4970011;28;20031;-30
2023/08/13 10:45:27;;;;;;;4.68;2.72;;;;;;;-145.33;100.00;60416.63;4970014;28;20564;-27
2023/08/13 10:47:58;;;;;;;6.63;2.83;;;;;;;-145.33;100.00;60416.63;4970625;28;20038;-23
2023/08/13 10:50:36;;;;;;;5.13;3.00;;;;;;;-145.33;100.00;60416.63;4969961;28;20562;-24
2023/08/13 10:53:05;;;;;;;5.70;2.72;;;;;;;-145.33;100.00;60416.63;4970065;28;20047;-25
2023/08/13 10:55:33;;;;;;;6.68;2.90;;;;;;;-145.33;100.00;60416.63;4970052;28;20611;-24
2023/08/13 10:57:59;;;;;;;5.03;2.72;;;;;;;-145.33;100.00;60416.63;4969920;28;20094;-24
2023/08/13 11:00:26;;;;;;;4.85;2.45;;;;;;;-145.33;100.00;60416.63;4969617;28;20121;-31
2023/08/13 11:03:16;;;;;;;4.38;2.80;;;;;;;-145.33;100.00;60416.63;4970038;28;20045;-26